sensor_id;sensor_type;location;lat;lon;timestamp;temperature;humidity
22145;DHT22;11238;48.730;11.566;2023-02-28T00:01:31;-0.90;97.30
22145;DHT22;11238;48.730;11.566;2023-02-28T00:03:57;-0.90;97.50
22145;DHT22;11238;48.730;11.566;2023-02-28T00:06:24;-0.90;97.60
22145;DHT22;11238;48.730;11.566;2023-02-28T00:08:50;-0.90;97.60
22145;DHT22;11238;48.730;11.566;2023-02-28T00:11:16;-0.90;97.60
22145;DHT22;11238;48.730;11.566;2023-02-28T00:13:45;-1.00;97.70
22145;DHT22;11238;48.730;11.566;2023-02-28T00:16:18;-1.00;97.80
22145;DHT22;11238;48.730;11.566;2023-02-28T00:18:45;-1.00;97.80
22145;DHT22;11238;48.730;11.566;2023-02-28T00:21:13;-1.00;97.80
22145;DHT22;11238;48.730;11.566;2023-02-28T00:23:39;-1.10;97.90
22145;DHT22;11238;48.730;11.566;2023-02-28T00:26:05;-1.10;98.10
22145;DHT22;11238;48.730;11.566;2023-02-28T00:28:31;-1.10;98.00
22145;DHT22;11238;48.730;11.566;2023-02-28T00:30:58;-1.00;98.10
22145;DHT22;11238;48.730;11.566;2023-02-28T00:33:25;-1.00;98.10
22145;DHT22;11238;48.730;11.566;2023-02-28T00:36:01;-1.00;98.10
22145;DHT22;11238;48.730;11.566;2023-02-28T00:38:30;-1.10;98.10
22145;DHT22;11238;48.730;11.566;2023-02-28T00:40:56;-1.10;98.20
22145;DHT22;11238;48.730;11.566;2023-02-28T00:43:22;-1.20;98.10
22145;DHT22;11238;48.730;11.566;2023-02-28T00:45:47;-1.10;98.20
22145;DHT22;11238;48.730;11.566;2023-02-28T00:48:13;-1.10;98.20
22145;DHT22;11238;48.730;11.566;2023-02-28T00:50:39;-1.20;98.10
22145;DHT22;11238;48.730;11.566;2023-02-28T00:53:05;-1.20;98.30
22145;DHT22;11238;48.730;11.566;2023-02-28T00:55:31;-1.20;98.20
22145;DHT22;11238;48.730;11.566;2023-02-28T00:57:56;-1.30;98.20
22145;DHT22;11238;48.730;11.566;2023-02-28T01:00:24;-1.30;98.20
22145;DHT22;11238;48.730;11.566;2023-02-28T01:02:50;-1.30;98.50
22145;DHT22;11238;48.730;11.566;2023-02-28T01:05:16;-1.30;98.30
22145;DHT22;11238;48.730;11.566;2023-02-28T01:07:41;-1.40;98.40
22145;DHT22;11238;48.730;11.566;2023-02-28T01:10:08;-1.40;98.40
22145;DHT22;11238;48.730;11.566;2023-02-28T01:12:34;-1.50;98.60
22145;DHT22;11238;48.730;11.566;2023-02-28T01:15:00;-1.40;98.70
22145;DHT22;11238;48.730;11.566;2023-02-28T01:17:25;-1.50;98.60
22145;DHT22;11238;48.730;11.566;2023-02-28T01:19:54;-1.40;98.60
22145;DHT22;11238;48.730;11.566;2023-02-28T01:22:20;-1.50;98.70
22145;DHT22;11238;48.730;11.566;2023-02-28T01:24:46;-1.50;98.80
22145;DHT22;11238;48.730;11.566;2023-02-28T01:27:13;-1.50;98.80
22145;DHT22;11238;48.730;11.566;2023-02-28T01:29:39;-1.50;98.80
22145;DHT22;11238;48.730;11.566;2023-02-28T01:32:05;-1.60;98.80
22145;DHT22;11238;48.730;11.566;2023-02-28T01:34:31;-1.60;98.90
22145;DHT22;11238;48.730;11.566;2023-02-28T01:36:58;-1.60;98.90
22145;DHT22;11238;48.730;11.566;2023-02-28T01:39:25;-1.60;99.00
22145;DHT22;11238;48.730;11.566;2023-02-28T01:41:51;-1.60;98.90
22145;DHT22;11238;48.730;11.566;2023-02-28T01:47:22;-1.60;99.10
22145;DHT22;11238;48.730;11.566;2023-02-28T01:49:49;-1.60;99.10
22145;DHT22;11238;48.730;11.566;2023-02-28T01:52:18;-1.60;99.20
22145;DHT22;11238;48.730;11.566;2023-02-28T01:54:50;-1.60;99.20
22145;DHT22;11238;48.730;11.566;2023-02-28T01:57:19;-1.70;99.30
22145;DHT22;11238;48.730;11.566;2023-02-28T02:02:49;-1.70;99.20
22145;DHT22;11238;48.730;11.566;2023-02-28T02:05:21;-1.70;99.30
22145;DHT22;11238;48.730;11.566;2023-02-28T02:07:51;-1.70;99.50
22145;DHT22;11238;48.730;11.566;2023-02-28T02:10:42;-1.70;99.60
22145;DHT22;11238;48.730;11.566;2023-02-28T02:16:30;-1.80;99.60
22145;DHT22;11238;48.730;11.566;2023-02-28T02:21:46;-1.70;99.70
22145;DHT22;11238;48.730;11.566;2023-02-28T02:27:59;-1.80;99.70
22145;DHT22;11238;48.730;11.566;2023-02-28T02:36:04;-1.90;99.90
22145;DHT22;11238;48.730;11.566;2023-02-28T02:38:38;-1.90;99.90
22145;DHT22;11238;48.730;11.566;2023-02-28T02:43:46;-1.80;99.90
22145;DHT22;11238;48.730;11.566;2023-02-28T02:46:19;-1.90;99.90
22145;DHT22;11238;48.730;11.566;2023-02-28T02:48:47;-1.90;99.90
22145;DHT22;11238;48.730;11.566;2023-02-28T02:51:19;-1.90;99.90
22145;DHT22;11238;48.730;11.566;2023-02-28T02:53:51;-2.00;99.90
22145;DHT22;11238;48.730;11.566;2023-02-28T02:56:21;-2.00;99.90
22145;DHT22;11238;48.730;11.566;2023-02-28T02:58:49;-2.00;99.90
22145;DHT22;11238;48.730;11.566;2023-02-28T03:01:22;-2.10;99.90
22145;DHT22;11238;48.730;11.566;2023-02-28T03:04:03;-2.10;99.90
22145;DHT22;11238;48.730;11.566;2023-02-28T03:06:29;-2.20;99.90
22145;DHT22;11238;48.730;11.566;2023-02-28T03:08:55;-2.10;99.90
22145;DHT22;11238;48.730;11.566;2023-02-28T03:11:22;-2.10;99.90
22145;DHT22;11238;48.730;11.566;2023-02-28T03:13:56;-2.20;99.90
22145;DHT22;11238;48.730;11.566;2023-02-28T03:24:54;-2.30;99.90
22145;DHT22;11238;48.730;11.566;2023-02-28T03:27:26;-2.30;99.90
22145;DHT22;11238;48.730;11.566;2023-02-28T03:32:38;-2.30;99.90
22145;DHT22;11238;48.730;11.566;2023-02-28T03:35:20;-2.30;99.90
22145;DHT22;11238;48.730;11.566;2023-02-28T03:37:50;-2.30;99.90
22145;DHT22;11238;48.730;11.566;2023-02-28T03:40:22;-2.40;99.90
22145;DHT22;11238;48.730;11.566;2023-02-28T03:42:54;-2.40;99.90
22145;DHT22;11238;48.730;11.566;2023-02-28T03:45:25;-2.40;99.90
22145;DHT22;11238;48.730;11.566;2023-02-28T03:48:01;-2.40;99.90
22145;DHT22;11238;48.730;11.566;2023-02-28T03:50:35;-2.40;99.90
22145;DHT22;11238;48.730;11.566;2023-02-28T03:53:16;-2.40;99.90
22145;DHT22;11238;48.730;11.566;2023-02-28T03:58:53;-2.40;99.90
22145;DHT22;11238;48.730;11.566;2023-02-28T04:01:33;-2.40;99.90
22145;DHT22;11238;48.730;11.566;2023-02-28T04:04:00;-2.40;99.90
22145;DHT22;11238;48.730;11.566;2023-02-28T04:06:26;-2.40;99.90
22145;DHT22;11238;48.730;11.566;2023-02-28T04:08:52;-2.40;99.90
22145;DHT22;11238;48.730;11.566;2023-02-28T04:11:27;-2.50;99.90
22145;DHT22;11238;48.730;11.566;2023-02-28T04:13:56;-2.40;99.90
22145;DHT22;11238;48.730;11.566;2023-02-28T04:16:21;-2.40;99.90
22145;DHT22;11238;48.730;11.566;2023-02-28T04:18:47;-2.40;99.90
22145;DHT22;11238;48.730;11.566;2023-02-28T04:21:13;-2.50;99.90
22145;DHT22;11238;48.730;11.566;2023-02-28T04:23:39;-2.50;99.90
22145;DHT22;11238;48.730;11.566;2023-02-28T04:26:05;-2.50;99.90
22145;DHT22;11238;48.730;11.566;2023-02-28T04:28:33;-2.50;99.90
22145;DHT22;11238;48.730;11.566;2023-02-28T04:31:04;-2.50;99.90
22145;DHT22;11238;48.730;11.566;2023-02-28T04:33:31;-2.50;99.90
22145;DHT22;11238;48.730;11.566;2023-02-28T04:36:08;-2.50;99.90
22145;DHT22;11238;48.730;11.566;2023-02-28T04:38:36;-2.50;99.90
22145;DHT22;11238;48.730;11.566;2023-02-28T04:41:03;-2.50;99.90
22145;DHT22;11238;48.730;11.566;2023-02-28T04:43:30;-2.50;99.90
22145;DHT22;11238;48.730;11.566;2023-02-28T04:45:57;-2.50;99.90
22145;DHT22;11238;48.730;11.566;2023-02-28T04:48:26;-2.60;99.90
22145;DHT22;11238;48.730;11.566;2023-02-28T04:50:52;-2.50;99.90
22145;DHT22;11238;48.730;11.566;2023-02-28T04:53:19;-2.50;99.90
22145;DHT22;11238;48.730;11.566;2023-02-28T04:55:48;-2.60;99.90
22145;DHT22;11238;48.730;11.566;2023-02-28T04:58:14;-2.60;99.90
22145;DHT22;11238;48.730;11.566;2023-02-28T05:00:40;-2.60;99.90
22145;DHT22;11238;48.730;11.566;2023-02-28T05:03:09;-2.60;99.90
22145;DHT22;11238;48.730;11.566;2023-02-28T05:05:35;-2.60;99.90
22145;DHT22;11238;48.730;11.566;2023-02-28T05:08:01;-2.60;99.90
22145;DHT22;11238;48.730;11.566;2023-02-28T05:10:27;-2.60;99.90
22145;DHT22;11238;48.730;11.566;2023-02-28T05:12:53;-2.60;99.90
22145;DHT22;11238;48.730;11.566;2023-02-28T05:15:19;-2.60;99.90
22145;DHT22;11238;48.730;11.566;2023-02-28T05:17:45;-2.60;99.90
22145;DHT22;11238;48.730;11.566;2023-02-28T05:20:11;-2.60;99.90
22145;DHT22;11238;48.730;11.566;2023-02-28T05:22:42;-2.60;99.90
22145;DHT22;11238;48.730;11.566;2023-02-28T05:25:12;-2.70;99.90
22145;DHT22;11238;48.730;11.566;2023-02-28T05:27:38;-2.70;99.90
22145;DHT22;11238;48.730;11.566;2023-02-28T05:30:06;-2.70;99.90
22145;DHT22;11238;48.730;11.566;2023-02-28T05:32:31;-2.70;99.90
22145;DHT22;11238;48.730;11.566;2023-02-28T05:34:57;-2.70;99.90
22145;DHT22;11238;48.730;11.566;2023-02-28T05:37:23;-2.70;99.90
22145;DHT22;11238;48.730;11.566;2023-02-28T05:39:49;-2.70;99.90
22145;DHT22;11238;48.730;11.566;2023-02-28T05:42:15;-2.70;99.90
22145;DHT22;11238;48.730;11.566;2023-02-28T05:44:41;-2.70;99.90
22145;DHT22;11238;48.730;11.566;2023-02-28T05:47:07;-2.80;99.90
22145;DHT22;11238;48.730;11.566;2023-02-28T05:49:33;-2.70;99.90
22145;DHT22;11238;48.730;11.566;2023-02-28T05:52:00;-2.70;99.90
22145;DHT22;11238;48.730;11.566;2023-02-28T05:54:26;-2.70;99.90
22145;DHT22;11238;48.730;11.566;2023-02-28T05:56:52;-2.70;99.90
22145;DHT22;11238;48.730;11.566;2023-02-28T05:59:18;-2.70;99.90
22145;DHT22;11238;48.730;11.566;2023-02-28T06:01:45;-2.80;99.90
22145;DHT22;11238;48.730;11.566;2023-02-28T06:04:15;-2.70;99.90
22145;DHT22;11238;48.730;11.566;2023-02-28T06:06:44;-2.70;99.90
22145;DHT22;11238;48.730;11.566;2023-02-28T06:09:10;-2.70;99.90
22145;DHT22;11238;48.730;11.566;2023-02-28T06:11:37;-2.70;99.90
22145;DHT22;11238;48.730;11.566;2023-02-28T06:14:04;-2.70;99.90
22145;DHT22;11238;48.730;11.566;2023-02-28T06:16:32;-2.80;99.90
22145;DHT22;11238;48.730;11.566;2023-02-28T06:19:00;-2.70;99.90
22145;DHT22;11238;48.730;11.566;2023-02-28T06:21:27;-2.70;99.90
22145;DHT22;11238;48.730;11.566;2023-02-28T06:23:55;-2.70;99.90
22145;DHT22;11238;48.730;11.566;2023-02-28T06:26:22;-2.70;99.90
22145;DHT22;11238;48.730;11.566;2023-02-28T06:28:48;-2.60;99.90
22145;DHT22;11238;48.730;11.566;2023-02-28T06:31:15;-2.60;99.90
22145;DHT22;11238;48.730;11.566;2023-02-28T06:33:43;-2.50;99.90
22145;DHT22;11238;48.730;11.566;2023-02-28T06:36:11;-2.60;99.90
22145;DHT22;11238;48.730;11.566;2023-02-28T06:38:38;-2.50;99.90
22145;DHT22;11238;48.730;11.566;2023-02-28T06:41:04;-2.50;99.90
22145;DHT22;11238;48.730;11.566;2023-02-28T06:43:34;-2.50;99.90
22145;DHT22;11238;48.730;11.566;2023-02-28T06:46:03;-2.50;99.90
22145;DHT22;11238;48.730;11.566;2023-02-28T06:48:30;-2.50;99.90
22145;DHT22;11238;48.730;11.566;2023-02-28T06:51:24;-2.50;99.90
22145;DHT22;11238;48.730;11.566;2023-02-28T06:53:51;-2.50;99.90
22145;DHT22;11238;48.730;11.566;2023-02-28T06:56:18;-2.40;99.90
22145;DHT22;11238;48.730;11.566;2023-02-28T06:58:48;-2.30;99.90
22145;DHT22;11238;48.730;11.566;2023-02-28T07:01:14;-2.30;99.90
22145;DHT22;11238;48.730;11.566;2023-02-28T07:03:40;-2.20;99.90
22145;DHT22;11238;48.730;11.566;2023-02-28T07:06:06;-2.20;99.90
22145;DHT22;11238;48.730;11.566;2023-02-28T07:08:34;-2.10;99.90
22145;DHT22;11238;48.730;11.566;2023-02-28T07:11:00;-2.10;99.90
22145;DHT22;11238;48.730;11.566;2023-02-28T07:13:25;-2.10;99.90
22145;DHT22;11238;48.730;11.566;2023-02-28T07:15:56;-2.00;99.90
22145;DHT22;11238;48.730;11.566;2023-02-28T07:18:22;-1.90;99.90
22145;DHT22;11238;48.730;11.566;2023-02-28T07:20:51;-1.80;99.90
22145;DHT22;11238;48.730;11.566;2023-02-28T07:23:17;-1.80;99.90
22145;DHT22;11238;48.730;11.566;2023-02-28T07:25:43;-1.70;99.90
22145;DHT22;11238;48.730;11.566;2023-02-28T07:28:32;-1.60;99.90
22145;DHT22;11238;48.730;11.566;2023-02-28T07:31:07;-1.60;99.90
22145;DHT22;11238;48.730;11.566;2023-02-28T07:33:33;-1.50;99.90
22145;DHT22;11238;48.730;11.566;2023-02-28T07:36:17;-1.40;99.90
22145;DHT22;11238;48.730;11.566;2023-02-28T07:38:46;-1.40;99.90
22145;DHT22;11238;48.730;11.566;2023-02-28T07:41:21;-1.30;99.90
22145;DHT22;11238;48.730;11.566;2023-02-28T07:43:49;-1.20;99.90
22145;DHT22;11238;48.730;11.566;2023-02-28T07:46:16;-1.10;99.90
22145;DHT22;11238;48.730;11.566;2023-02-28T07:48:43;-1.10;99.90
22145;DHT22;11238;48.730;11.566;2023-02-28T07:51:09;-1.00;99.90
22145;DHT22;11238;48.730;11.566;2023-02-28T07:53:36;-0.90;99.90
22145;DHT22;11238;48.730;11.566;2023-02-28T07:56:03;-0.80;99.90
22145;DHT22;11238;48.730;11.566;2023-02-28T07:58:30;-0.70;99.90
22145;DHT22;11238;48.730;11.566;2023-02-28T08:00:56;-0.60;99.90
22145;DHT22;11238;48.730;11.566;2023-02-28T08:03:23;-0.50;99.90
22145;DHT22;11238;48.730;11.566;2023-02-28T08:05:49;-0.40;99.90
22145;DHT22;11238;48.730;11.566;2023-02-28T08:08:16;-0.40;99.90
22145;DHT22;11238;48.730;11.566;2023-02-28T08:10:42;-0.40;99.90
22145;DHT22;11238;48.730;11.566;2023-02-28T08:13:08;-0.30;99.90
22145;DHT22;11238;48.730;11.566;2023-02-28T08:15:34;-0.20;99.90
22145;DHT22;11238;48.730;11.566;2023-02-28T08:18:00;-0.10;99.90
22145;DHT22;11238;48.730;11.566;2023-02-28T08:20:26;0.00;99.90
22145;DHT22;11238;48.730;11.566;2023-02-28T08:22:52;0.10;99.90
22145;DHT22;11238;48.730;11.566;2023-02-28T08:25:18;0.20;99.90
22145;DHT22;11238;48.730;11.566;2023-02-28T08:27:44;0.30;99.90
22145;DHT22;11238;48.730;11.566;2023-02-28T08:30:12;0.40;99.90
22145;DHT22;11238;48.730;11.566;2023-02-28T08:32:39;0.40;99.50
22145;DHT22;11238;48.730;11.566;2023-02-28T08:35:05;0.60;99.30
22145;DHT22;11238;48.730;11.566;2023-02-28T08:37:31;0.60;98.30
22145;DHT22;11238;48.730;11.566;2023-02-28T08:39:57;0.70;98.10
22145;DHT22;11238;48.730;11.566;2023-02-28T08:42:24;0.80;97.80
22145;DHT22;11238;48.730;11.566;2023-02-28T08:44:50;0.90;97.50
22145;DHT22;11238;48.730;11.566;2023-02-28T08:47:16;1.10;97.20
22145;DHT22;11238;48.730;11.566;2023-02-28T08:49:42;1.10;96.20
22145;DHT22;11238;48.730;11.566;2023-02-28T08:52:07;1.20;96.00
22145;DHT22;11238;48.730;11.566;2023-02-28T08:54:34;1.30;96.30
22145;DHT22;11238;48.730;11.566;2023-02-28T08:57:00;1.50;96.00
22145;DHT22;11238;48.730;11.566;2023-02-28T08:59:28;1.60;95.70
22145;DHT22;11238;48.730;11.566;2023-02-28T09:01:54;1.80;95.60
22145;DHT22;11238;48.730;11.566;2023-02-28T09:04:20;1.90;94.40
22145;DHT22;11238;48.730;11.566;2023-02-28T09:06:46;2.00;94.60
22145;DHT22;11238;48.730;11.566;2023-02-28T09:09:14;2.10;94.10
22145;DHT22;11238;48.730;11.566;2023-02-28T09:11:41;2.20;93.50
22145;DHT22;11238;48.730;11.566;2023-02-28T09:14:07;2.20;92.40
22145;DHT22;11238;48.730;11.566;2023-02-28T09:16:34;2.30;91.90
22145;DHT22;11238;48.730;11.566;2023-02-28T09:19:00;2.40;91.90
22145;DHT22;11238;48.730;11.566;2023-02-28T09:21:26;2.50;91.90
22145;DHT22;11238;48.730;11.566;2023-02-28T09:23:52;2.50;91.10
22145;DHT22;11238;48.730;11.566;2023-02-28T09:26:24;2.60;91.00
22145;DHT22;11238;48.730;11.566;2023-02-28T09:28:51;2.60;90.40
22145;DHT22;11238;48.730;11.566;2023-02-28T09:31:19;2.80;90.70
22145;DHT22;11238;48.730;11.566;2023-02-28T09:33:50;3.00;90.90
22145;DHT22;11238;48.730;11.566;2023-02-28T09:36:16;3.00;89.70
22145;DHT22;11238;48.730;11.566;2023-02-28T09:38:42;3.10;88.50
22145;DHT22;11238;48.730;11.566;2023-02-28T09:41:13;3.20;88.60
22145;DHT22;11238;48.730;11.566;2023-02-28T09:43:42;3.20;88.10
22145;DHT22;11238;48.730;11.566;2023-02-28T09:48:56;3.50;87.10
22145;DHT22;11238;48.730;11.566;2023-02-28T09:51:47;3.60;87.00
22145;DHT22;11238;48.730;11.566;2023-02-28T09:54:21;3.70;86.20
22145;DHT22;11238;48.730;11.566;2023-02-28T09:56:58;3.80;85.80
22145;DHT22;11238;48.730;11.566;2023-02-28T10:00:11;3.90;85.80
22145;DHT22;11238;48.730;11.566;2023-02-28T10:03:10;4.10;85.10
22145;DHT22;11238;48.730;11.566;2023-02-28T10:06:16;4.10;84.30
22145;DHT22;11238;48.730;11.566;2023-02-28T10:09:03;4.10;83.90
22145;DHT22;11238;48.730;11.566;2023-02-28T10:11:32;4.20;83.60
22145;DHT22;11238;48.730;11.566;2023-02-28T10:14:14;4.30;83.20
22145;DHT22;11238;48.730;11.566;2023-02-28T10:20:05;4.60;85.50
22145;DHT22;11238;48.730;11.566;2023-02-28T10:22:28;4.60;81.20
22145;DHT22;11238;48.730;11.566;2023-02-28T10:24:55;4.80;82.60
22145;DHT22;11238;48.730;11.566;2023-02-28T10:27:30;4.90;81.00
22145;DHT22;11238;48.730;11.566;2023-02-28T10:29:58;5.00;82.40
22145;DHT22;11238;48.730;11.566;2023-02-28T10:32:27;5.00;80.30
22145;DHT22;11238;48.730;11.566;2023-02-28T10:37:26;5.10;81.00
22145;DHT22;11238;48.730;11.566;2023-02-28T10:39:53;5.30;82.90
22145;DHT22;11238;48.730;11.566;2023-02-28T10:42:28;5.40;81.00
22145;DHT22;11238;48.730;11.566;2023-02-28T10:45:11;5.60;79.20
22145;DHT22;11238;48.730;11.566;2023-02-28T10:55:36;5.60;77.80
22145;DHT22;11238;48.730;11.566;2023-02-28T10:58:02;5.60;78.00
22145;DHT22;11238;48.730;11.566;2023-02-28T11:00:34;5.60;77.10
22145;DHT22;11238;48.730;11.566;2023-02-28T11:03:01;5.80;77.80
22145;DHT22;11238;48.730;11.566;2023-02-28T11:05:36;5.90;78.10
22145;DHT22;11238;48.730;11.566;2023-02-28T11:08:15;6.00;76.10
22145;DHT22;11238;48.730;11.566;2023-02-28T11:10:46;6.30;76.80
22145;DHT22;11238;48.730;11.566;2023-02-28T11:13:21;6.30;75.90
22145;DHT22;11238;48.730;11.566;2023-02-28T11:15:53;6.30;75.70
22145;DHT22;11238;48.730;11.566;2023-02-28T11:18:49;6.40;74.80
22145;DHT22;11238;48.730;11.566;2023-02-28T11:21:29;6.50;75.20
22145;DHT22;11238;48.730;11.566;2023-02-28T11:26:45;6.90;74.90
22145;DHT22;11238;48.730;11.566;2023-02-28T11:29:24;7.00;74.60
22145;DHT22;11238;48.730;11.566;2023-02-28T11:34:37;7.30;72.70
22145;DHT22;11238;48.730;11.566;2023-02-28T11:37:05;7.50;73.20
22145;DHT22;11238;48.730;11.566;2023-02-28T11:39:33;7.50;71.80
22145;DHT22;11238;48.730;11.566;2023-02-28T11:42:08;7.60;72.90
22145;DHT22;11238;48.730;11.566;2023-02-28T11:47:42;7.50;70.60
22145;DHT22;11238;48.730;11.566;2023-02-28T11:55:35;7.60;70.10
22145;DHT22;11238;48.730;11.566;2023-02-28T12:07:03;8.20;70.60
22145;DHT22;11238;48.730;11.566;2023-02-28T12:27:58;8.30;70.50
22145;DHT22;11238;48.730;11.566;2023-02-28T12:30:35;8.30;68.90
22145;DHT22;11238;48.730;11.566;2023-02-28T12:35:44;8.40;69.00
22145;DHT22;11238;48.730;11.566;2023-02-28T12:38:19;8.60;69.10
22145;DHT22;11238;48.730;11.566;2023-02-28T12:44:11;8.80;67.90
22145;DHT22;11238;48.730;11.566;2023-02-28T12:46:42;8.80;67.60
22145;DHT22;11238;48.730;11.566;2023-02-28T12:49:16;8.70;68.20
22145;DHT22;11238;48.730;11.566;2023-02-28T12:51:43;8.90;78.10
22145;DHT22;11238;48.730;11.566;2023-02-28T12:54:21;8.90;68.00
22145;DHT22;11238;48.730;11.566;2023-02-28T12:57:15;8.60;65.90
22145;DHT22;11238;48.730;11.566;2023-02-28T12:59:56;8.70;66.40
22145;DHT22;11238;48.730;11.566;2023-02-28T13:05:10;8.90;66.70
22145;DHT22;11238;48.730;11.566;2023-02-28T13:10:44;8.90;67.30
22145;DHT22;11238;48.730;11.566;2023-02-28T13:13:16;8.80;65.60
22145;DHT22;11238;48.730;11.566;2023-02-28T13:15:58;8.40;66.80
22145;DHT22;11238;48.730;11.566;2023-02-28T13:18:35;8.50;67.60
22145;DHT22;11238;48.730;11.566;2023-02-28T13:21:04;8.50;66.50
22145;DHT22;11238;48.730;11.566;2023-02-28T13:26:18;8.40;65.70
22145;DHT22;11238;48.730;11.566;2023-02-28T13:29:00;8.60;67.50
22145;DHT22;11238;48.730;11.566;2023-02-28T13:31:28;8.80;67.10
22145;DHT22;11238;48.730;11.566;2023-02-28T13:36:25;8.80;65.90
22145;DHT22;11238;48.730;11.566;2023-02-28T13:39:03;8.60;66.10
22145;DHT22;11238;48.730;11.566;2023-02-28T13:41:48;8.30;67.80
22145;DHT22;11238;48.730;11.566;2023-02-28T13:47:38;8.10;68.40
22145;DHT22;11238;48.730;11.566;2023-02-28T13:50:39;8.10;68.70
22145;DHT22;11238;48.730;11.566;2023-02-28T13:58:53;8.60;69.20
22145;DHT22;11238;48.730;11.566;2023-02-28T14:06:50;8.30;68.40
22145;DHT22;11238;48.730;11.566;2023-02-28T14:09:39;8.30;68.90
22145;DHT22;11238;48.730;11.566;2023-02-28T14:18:20;8.60;66.30
22145;DHT22;11238;48.730;11.566;2023-02-28T14:20:48;8.80;67.40
22145;DHT22;11238;48.730;11.566;2023-02-28T14:23:32;8.60;66.90
22145;DHT22;11238;48.730;11.566;2023-02-28T14:29:16;8.90;67.40
22145;DHT22;11238;48.730;11.566;2023-02-28T14:32:02;9.00;67.00
22145;DHT22;11238;48.730;11.566;2023-02-28T14:37:01;9.00;66.70
22145;DHT22;11238;48.730;11.566;2023-02-28T14:39:31;8.90;66.90
22145;DHT22;11238;48.730;11.566;2023-02-28T14:41:58;9.00;67.00
22145;DHT22;11238;48.730;11.566;2023-02-28T14:44:31;8.90;67.90
22145;DHT22;11238;48.730;11.566;2023-02-28T14:46:59;9.00;67.20
22145;DHT22;11238;48.730;11.566;2023-02-28T14:49:36;9.10;67.20
22145;DHT22;11238;48.730;11.566;2023-02-28T14:52:09;9.10;66.80
22145;DHT22;11238;48.730;11.566;2023-02-28T14:54:37;8.80;66.40
22145;DHT22;11238;48.730;11.566;2023-02-28T14:57:04;8.60;66.80
22145;DHT22;11238;48.730;11.566;2023-02-28T14:59:33;8.40;68.80
22145;DHT22;11238;48.730;11.566;2023-02-28T15:02:23;8.20;68.20
22145;DHT22;11238;48.730;11.566;2023-02-28T15:07:48;8.20;68.30
22145;DHT22;11238;48.730;11.566;2023-02-28T15:10:24;7.90;68.30
22145;DHT22;11238;48.730;11.566;2023-02-28T15:12:54;7.90;73.70
22145;DHT22;11238;48.730;11.566;2023-02-28T15:18:31;7.50;71.80
22145;DHT22;11238;48.730;11.566;2023-02-28T15:21:03;7.30;71.60
22145;DHT22;11238;48.730;11.566;2023-02-28T15:23:30;7.20;71.40
22145;DHT22;11238;48.730;11.566;2023-02-28T15:25:58;7.30;72.10
22145;DHT22;11238;48.730;11.566;2023-02-28T15:28:25;7.10;72.00
22145;DHT22;11238;48.730;11.566;2023-02-28T15:31:03;7.00;72.70
22145;DHT22;11238;48.730;11.566;2023-02-28T15:33:56;7.00;73.70
22145;DHT22;11238;48.730;11.566;2023-02-28T15:36:29;6.60;73.60
22145;DHT22;11238;48.730;11.566;2023-02-28T15:39:25;6.60;74.70
22145;DHT22;11238;48.730;11.566;2023-02-28T15:42:16;6.50;74.70
22145;DHT22;11238;48.730;11.566;2023-02-28T15:44:43;6.50;75.70
22145;DHT22;11238;48.730;11.566;2023-02-28T15:47:21;6.50;75.30
22145;DHT22;11238;48.730;11.566;2023-02-28T15:49:50;6.50;75.00
22145;DHT22;11238;48.730;11.566;2023-02-28T15:52:38;6.40;74.80
22145;DHT22;11238;48.730;11.566;2023-02-28T15:55:25;6.20;75.10
22145;DHT22;11238;48.730;11.566;2023-02-28T15:57:54;6.10;76.30
22145;DHT22;11238;48.730;11.566;2023-02-28T16:00:25;6.10;76.80
22145;DHT22;11238;48.730;11.566;2023-02-28T16:02:51;6.00;76.60
22145;DHT22;11238;48.730;11.566;2023-02-28T16:08:01;5.80;77.20
22145;DHT22;11238;48.730;11.566;2023-02-28T16:10:32;5.80;77.80
22145;DHT22;11238;48.730;11.566;2023-02-28T16:12:58;5.60;77.40
22145;DHT22;11238;48.730;11.566;2023-02-28T16:15:27;5.50;77.70
22145;DHT22;11238;48.730;11.566;2023-02-28T16:17:57;5.40;78.00
22145;DHT22;11238;48.730;11.566;2023-02-28T16:20:26;5.40;78.10
22145;DHT22;11238;48.730;11.566;2023-02-28T16:22:54;5.40;78.30
22145;DHT22;11238;48.730;11.566;2023-02-28T16:25:29;5.30;78.70
22145;DHT22;11238;48.730;11.566;2023-02-28T16:27:58;5.30;79.60
22145;DHT22;11238;48.730;11.566;2023-02-28T16:30:28;5.20;79.50
22145;DHT22;11238;48.730;11.566;2023-02-28T16:32:57;5.10;80.00
22145;DHT22;11238;48.730;11.566;2023-02-28T16:35:46;4.90;80.30
22145;DHT22;11238;48.730;11.566;2023-02-28T16:38:11;4.90;81.50
22145;DHT22;11238;48.730;11.566;2023-02-28T16:40:37;4.80;81.70
22145;DHT22;11238;48.730;11.566;2023-02-28T16:43:24;4.60;82.00
22145;DHT22;11238;48.730;11.566;2023-02-28T16:45:55;4.30;82.90
22145;DHT22;11238;48.730;11.566;2023-02-28T16:48:24;4.30;83.70
22145;DHT22;11238;48.730;11.566;2023-02-28T16:50:50;4.30;83.90
22145;DHT22;11238;48.730;11.566;2023-02-28T16:53:16;4.30;83.90
22145;DHT22;11238;48.730;11.566;2023-02-28T16:55:42;4.20;83.90
22145;DHT22;11238;48.730;11.566;2023-02-28T16:58:15;4.10;84.50
22145;DHT22;11238;48.730;11.566;2023-02-28T17:00:41;4.10;85.10
22145;DHT22;11238;48.730;11.566;2023-02-28T17:03:27;4.10;85.30
22145;DHT22;11238;48.730;11.566;2023-02-28T17:05:53;4.10;85.50
22145;DHT22;11238;48.730;11.566;2023-02-28T17:08:19;4.00;86.00
22145;DHT22;11238;48.730;11.566;2023-02-28T17:10:45;4.00;87.40
22145;DHT22;11238;48.730;11.566;2023-02-28T17:13:11;4.00;86.60
22145;DHT22;11238;48.730;11.566;2023-02-28T17:15:38;4.00;86.80
22145;DHT22;11238;48.730;11.566;2023-02-28T17:18:04;3.90;86.50
22145;DHT22;11238;48.730;11.566;2023-02-28T17:20:30;4.00;86.90
22145;DHT22;11238;48.730;11.566;2023-02-28T17:22:57;4.00;87.10
22145;DHT22;11238;48.730;11.566;2023-02-28T17:25:24;3.90;87.30
22145;DHT22;11238;48.730;11.566;2023-02-28T17:27:50;3.90;87.10
22145;DHT22;11238;48.730;11.566;2023-02-28T17:30:24;3.90;87.20
22145;DHT22;11238;48.730;11.566;2023-02-28T17:33:15;3.90;87.20
22145;DHT22;11238;48.730;11.566;2023-02-28T17:35:40;3.90;87.40
22145;DHT22;11238;48.730;11.566;2023-02-28T17:38:16;3.90;87.30
22145;DHT22;11238;48.730;11.566;2023-02-28T17:40:42;3.80;87.80
22145;DHT22;11238;48.730;11.566;2023-02-28T17:43:09;3.80;88.00
22145;DHT22;11238;48.730;11.566;2023-02-28T17:45:36;3.80;88.40
22145;DHT22;11238;48.730;11.566;2023-02-28T17:48:02;3.70;89.00
22145;DHT22;11238;48.730;11.566;2023-02-28T17:50:29;3.70;88.70
22145;DHT22;11238;48.730;11.566;2023-02-28T17:52:55;3.70;89.20
22145;DHT22;11238;48.730;11.566;2023-02-28T17:55:21;3.70;89.70
22145;DHT22;11238;48.730;11.566;2023-02-28T17:57:47;3.60;89.50
22145;DHT22;11238;48.730;11.566;2023-02-28T18:00:15;3.60;89.80
22145;DHT22;11238;48.730;11.566;2023-02-28T18:02:43;3.50;89.70
22145;DHT22;11238;48.730;11.566;2023-02-28T18:05:10;3.50;90.00
22145;DHT22;11238;48.730;11.566;2023-02-28T18:07:38;3.50;89.90
22145;DHT22;11238;48.730;11.566;2023-02-28T18:10:07;3.50;89.90